• Join FlightAware (Why Join?)
  • Login
  • US Flag 
01:49PM EST


 

Airport Tracker/Info


-or-


 

Live Flight TrackerFlight Track Log ✈ PDT4606 ✈ 13-May-2013 ✈ KPHF - KPHL

Flight Track Log - Related Links

Times and Time Zones

All times are in EDT time to prevent confusion due to time zone crossing. See the PDT4606 flight status page for this flight to view local times or setup timezone preferences in your user account.

Time Position Orientation Groundspeed Altitude Reporting Facility
EDT Latitude Longitude Course Direction KTS MPH feet Rate Location/Type
03:05PM 37.1228 -76.5036 38° Northeast 123 142 700  Level Washington Center
03:05PM 37.1100 -76.5242 232° Southwest 124 143 1,700 1,560 Climbing Washington Center
03:07PM 37.2607 -76.3305 44° Northeast  Level FlightAware Approximate
03:07PM 37.1350 -76.5403 333° Northwest 131 151 3,400  Level Washington Center
03:07PM 37.1539 -76.5014 59° Northeast 165 190 3,900 1,500 Climbing Washington Center
03:08PM 37.3062 -76.2759 44° Northeast  Level FlightAware Approximate
03:08PM 37.1836 -76.4442 57° Northeast 158 182 6,300  Level Washington Center
03:09PM 37.3517 -76.2213 44° Northeast  Level FlightAware Approximate
03:09PM 37.2006 -76.4003 64° Northeast 160 184 7,500  Level Washington Center
03:10PM 37.4020 -76.1813 38° Northeast  Level FlightAware Approximate
03:10PM 37.2069 -76.3897 53° Northeast 167 192 7,900  Level Washington Center
03:10PM 37.2217 -76.3508 65° Northeast 160 184 9,000 1,500 Climbing Washington Center
03:11PM 37.2281 -76.3378 58° Northeast 167 192 9,400 1,080 Climbing Washington Center
03:11PM 37.2472 -76.2858 65° Northeast 174 200 10,100 1,080 Climbing Washington Center
03:12PM 37.2514 -76.2756 63° Northeast 188 216 10,500 960 Climbing Washington Center
03:12PM 37.2747 -76.2364 53° Northeast 205 236 11,100 900 Climbing Washington Center
03:13PM 37.3247 -76.1978 32° Northeast 200 230 12,100 960 Climbing Washington Center
03:14PM 37.3731 -76.1564 34° Northeast 200 230 13,100 900 Climbing Washington Center
03:15PM 37.4169 -76.1225 32° Northeast 200 230 14,000 900 Climbing Washington Center
03:16PM 37.4608 -76.0864 33° Northeast 200 230 15,000 840 Climbing Washington Center
03:17PM 37.5111 -76.0500 30° Northeast 195 224 15,800 780 Climbing Washington Center
03:18PM 37.5592 -76.0111 33° Northeast 195 224 16,600 600 Climbing Washington Center
03:19PM 37.6117 -75.9589 38° Northeast 205 236 17,000 180 Climbing Washington Center
03:20PM 37.6661 -75.8989 41° Northeast 238 274 17,000  Level Washington Center
03:21PM 37.7267 -75.8333 41° Northeast 263 303 17,000  Level Washington Center
03:22PM 37.7892 -75.7678 40° Northeast 276 318 17,000  Level Washington Center
03:23PM 37.8497 -75.6997 42° Northeast 281 323 17,000  Level Washington Center
03:24PM 37.9125 -75.6311 41° Northeast 287 330 17,000  Level Washington Center
03:25PM 37.9750 -75.5681 38° Northeast 287 330 17,000  Level Washington Center
03:26PM 38.0333 -75.4969 44° Northeast 287 330 17,000 -360 Level Washington Center
03:27PM 38.1022 -75.4386 34° Northeast 287 330 16,400 -720 Descending Washington Center
03:28PM 38.1792 -75.3964 23° Northeast 292 336 15,600 -840 Descending Washington Center
03:29PM 38.2542 -75.3431 29° Northeast 297 342 14,800 -840 Descending Washington Center
03:30PM 38.3333 -75.2872 29° Northeast 309 356 14,000 -840 Descending Washington Center
03:31PM 38.4103 -75.2447 23° Northeast 304 350 13,200 -840 Descending Washington Center
03:32PM 38.4853 -75.1911 29° Northeast 304 350 12,400 -840 Descending Washington Center
03:33PM 38.5600 -75.1378 29° Northeast 299 344 11,600 -720 Descending Washington Center
03:34PM 38.6350 -75.1000 21° North 299 344 11,000 -360 Descending Washington Center
03:35PM 38.7036 -75.0650 22° Northeast 287 330 11,000  Level Washington Center
03:36PM 38.7681 -75.0244 26° Northeast 265 305 11,000 -240 Level Washington Center
03:37PM 38.8325 -74.9761 30° Northeast 259 298 10,600 -600 Descending Washington Center
03:38PM 38.8989 -74.9300 28° Northeast 259 298 9,800 -840 Descending Washington Center
03:39PM 38.9675 -74.8867 26° Northeast 266 306 9,000 -900 Descending Washington Center
03:40PM 39.0483 -74.8353 26° Northeast 267 307 8,000 -840 Descending Washington Center
03:41PM 39.0983 -74.8053 25° Northeast 261 300 7,400 -600 Descending Washington Center
03:42PM 39.1631 -74.8261 346° North 235 270 6,900 -540 Descending Washington Center
03:43PM 39.2236 -74.8494 343° North 229 264 6,400 -780 Descending Washington Center
03:44PM 39.2842 -74.8703 345° North 229 264 5,400 -1,020 Descending Washington Center
03:45PM 39.3447 -74.8964 342° North 229 264 4,400 -780 Descending Washington Center
03:46PM 39.4053 -74.9175 345° North 229 264 3,900 -240 Descending Washington Center
03:47PM 39.4667 -74.9500 338° Northwest 204 235 4,000  Climbing Philadelphia TRACON
03:48PM 39.5333 -74.9833 339° North 204 235 3,900 -60 Descending Philadelphia TRACON
03:49PM 39.5667 -75.0167 322° Northwest 201 231 3,900  Level Philadelphia TRACON
03:50PM 39.6167 -75.0667 322° Northwest 203 234 4,000 -300 Climbing Philadelphia TRACON
03:52PM 39.6500 -75.1000 322° Northwest 179 206 3,400 -660 Descending Philadelphia TRACON
03:52PM 39.7000 -75.1333 333° Northwest 175 201 2,700 -660 Descending Philadelphia TRACON
03:53PM 39.7333 -75.1667 322° Northwest 173 199 2,100 -600 Descending Philadelphia TRACON
03:54PM 39.7833 -75.1833 346° North 188 216 1,500 -420 Descending Philadelphia TRACON
03:56PM 39.8333 -75.2000 346° North 155 178 1,300 -240 Descending Philadelphia TRACON